sensor_id;sensor_type;location;lat;lon;timestamp;P1;durP1;ratioP1;P2;durP2;ratioP2
48875;SDS011;34689;51.644;5.618;2023-04-01T00:00:55;2.55;;;1.08;;
48875;SDS011;34689;51.644;5.618;2023-04-01T00:03:22;3.88;;;0.90;;
48875;SDS011;34689;51.644;5.618;2023-04-01T00:05:49;4.65;;;0.65;;
48875;SDS011;34689;51.644;5.618;2023-04-01T00:08:15;3.25;;;0.70;;
48875;SDS011;34689;51.644;5.618;2023-04-01T00:10:41;4.50;;;0.90;;
48875;SDS011;34689;51.644;5.618;2023-04-01T00:13:06;3.42;;;0.70;;
48875;SDS011;34689;51.644;5.618;2023-04-01T00:15:32;5.10;;;1.30;;
48875;SDS011;34689;51.644;5.618;2023-04-01T00:17:58;1.85;;;0.50;;
48875;SDS011;34689;51.644;5.618;2023-04-01T00:20:25;2.50;;;0.70;;
48875;SDS011;34689;51.644;5.618;2023-04-01T00:22:51;2.10;;;0.77;;
48875;SDS011;34689;51.644;5.618;2023-04-01T00:25:17;2.35;;;0.80;;
48875;SDS011;34689;51.644;5.618;2023-04-01T00:27:43;1.02;;;0.40;;
48875;SDS011;34689;51.644;5.618;2023-04-01T00:30:12;2.90;;;0.63;;
48875;SDS011;34689;51.644;5.618;2023-04-01T00:32:38;3.83;;;0.80;;
48875;SDS011;34689;51.644;5.618;2023-04-01T00:35:04;1.60;;;0.60;;
48875;SDS011;34689;51.644;5.618;2023-04-01T00:37:30;2.33;;;0.70;;
48875;SDS011;34689;51.644;5.618;2023-04-01T00:39:56;0.77;;;0.40;;
48875;SDS011;34689;51.644;5.618;2023-04-01T00:42:22;3.08;;;0.70;;
48875;SDS011;34689;51.644;5.618;2023-04-01T00:44:50;2.47;;;0.82;;
48875;SDS011;34689;51.644;5.618;2023-04-01T00:47:20;1.75;;;0.75;;
48875;SDS011;34689;51.644;5.618;2023-04-01T00:49:49;1.23;;;0.52;;
48875;SDS011;34689;51.644;5.618;2023-04-01T00:52:18;2.95;;;0.80;;
48875;SDS011;34689;51.644;5.618;2023-04-01T00:54:47;2.90;;;0.90;;
48875;SDS011;34689;51.644;5.618;2023-04-01T00:57:35;1.33;;;0.82;;
48875;SDS011;34689;51.644;5.618;2023-04-01T01:00:04;5.50;;;2.03;;
48875;SDS011;34689;51.644;5.618;2023-04-01T01:02:34;1.30;;;0.73;;
48875;SDS011;34689;51.644;5.618;2023-04-01T01:05:00;2.47;;;0.93;;
48875;SDS011;34689;51.644;5.618;2023-04-01T01:10:17;5.45;;;1.95;;
48875;SDS011;34689;51.644;5.618;2023-04-01T01:12:55;2.55;;;1.50;;
48875;SDS011;34689;51.644;5.618;2023-04-01T01:15:47;2.63;;;1.48;;
48875;SDS011;34689;51.644;5.618;2023-04-01T01:29:04;2.30;;;1.55;;
48875;SDS011;34689;51.644;5.618;2023-04-01T01:31:37;3.17;;;2.08;;
48875;SDS011;34689;51.644;5.618;2023-04-01T01:37:25;1.88;;;1.38;;
48875;SDS011;34689;51.644;5.618;2023-04-01T01:39:55;3.03;;;1.90;;
48875;SDS011;34689;51.644;5.618;2023-04-01T01:42:25;2.47;;;1.80;;
48875;SDS011;34689;51.644;5.618;2023-04-01T01:44:52;3.85;;;2.63;;
48875;SDS011;34689;51.644;5.618;2023-04-01T01:47:20;3.67;;;2.75;;
48875;SDS011;34689;51.644;5.618;2023-04-01T01:49:48;4.85;;;2.78;;
48875;SDS011;34689;51.644;5.618;2023-04-01T01:52:18;2.60;;;1.90;;
48875;SDS011;34689;51.644;5.618;2023-04-01T01:54:50;3.25;;;2.33;;
48875;SDS011;34689;51.644;5.618;2023-04-01T01:57:19;4.63;;;2.58;;
48875;SDS011;34689;51.644;5.618;2023-04-01T01:59:56;4.07;;;3.03;;
48875;SDS011;34689;51.644;5.618;2023-04-01T02:02:38;4.55;;;3.15;;
48875;SDS011;34689;51.644;5.618;2023-04-01T02:05:09;3.75;;;2.10;;
48875;SDS011;34689;51.644;5.618;2023-04-01T02:07:39;4.07;;;2.70;;
48875;SDS011;34689;51.644;5.618;2023-04-01T02:10:10;2.70;;;2.17;;
48875;SDS011;34689;51.644;5.618;2023-04-01T02:12:36;3.28;;;2.35;;
48875;SDS011;34689;51.644;5.618;2023-04-01T02:15:07;4.00;;;2.55;;
48875;SDS011;34689;51.644;5.618;2023-04-01T02:17:37;4.07;;;2.88;;
48875;SDS011;34689;51.644;5.618;2023-04-01T02:20:08;4.45;;;3.20;;
48875;SDS011;34689;51.644;5.618;2023-04-01T02:22:40;4.17;;;2.77;;
48875;SDS011;34689;51.644;5.618;2023-04-01T02:25:11;4.20;;;2.80;;
48875;SDS011;34689;51.644;5.618;2023-04-01T02:27:39;5.07;;;3.35;;
48875;SDS011;34689;51.644;5.618;2023-04-01T02:30:07;3.67;;;2.65;;
48875;SDS011;34689;51.644;5.618;2023-04-01T02:32:34;6.15;;;3.70;;
48875;SDS011;34689;51.644;5.618;2023-04-01T02:35:03;3.65;;;2.92;;
48875;SDS011;34689;51.644;5.618;2023-04-01T02:37:32;5.60;;;3.45;;
48875;SDS011;34689;51.644;5.618;2023-04-01T02:40:02;3.10;;;2.33;;
48875;SDS011;34689;51.644;5.618;2023-04-01T02:42:31;2.78;;;1.92;;
48875;SDS011;34689;51.644;5.618;2023-04-01T02:44:57;4.80;;;2.70;;
48875;SDS011;34689;51.644;5.618;2023-04-01T02:47:23;4.18;;;2.88;;
48875;SDS011;34689;51.644;5.618;2023-04-01T02:49:50;3.92;;;1.83;;
48875;SDS011;34689;51.644;5.618;2023-04-01T02:52:22;6.50;;;2.70;;
48875;SDS011;34689;51.644;5.618;2023-04-01T02:54:49;3.55;;;2.35;;
48875;SDS011;34689;51.644;5.618;2023-04-01T02:57:14;2.45;;;2.00;;
48875;SDS011;34689;51.644;5.618;2023-04-01T02:59:40;2.95;;;1.27;;
48875;SDS011;34689;51.644;5.618;2023-04-01T03:02:06;3.55;;;1.58;;
48875;SDS011;34689;51.644;5.618;2023-04-01T03:04:32;3.65;;;2.60;;
48875;SDS011;34689;51.644;5.618;2023-04-01T03:07:00;3.75;;;2.38;;
48875;SDS011;34689;51.644;5.618;2023-04-01T03:09:26;4.07;;;2.20;;
48875;SDS011;34689;51.644;5.618;2023-04-01T03:11:51;3.35;;;2.50;;
48875;SDS011;34689;51.644;5.618;2023-04-01T03:14:17;6.28;;;2.65;;
48875;SDS011;34689;51.644;5.618;2023-04-01T03:16:43;4.55;;;2.80;;
48875;SDS011;34689;51.644;5.618;2023-04-01T03:19:08;8.85;;;3.65;;
48875;SDS011;34689;51.644;5.618;2023-04-01T03:21:35;4.07;;;2.33;;
48875;SDS011;34689;51.644;5.618;2023-04-01T03:24:00;4.53;;;3.17;;
48875;SDS011;34689;51.644;5.618;2023-04-01T03:26:28;3.88;;;2.85;;
48875;SDS011;34689;51.644;5.618;2023-04-01T03:28:54;4.00;;;2.78;;
48875;SDS011;34689;51.644;5.618;2023-04-01T03:31:20;4.43;;;2.92;;
48875;SDS011;34689;51.644;5.618;2023-04-01T03:33:46;5.03;;;2.83;;
48875;SDS011;34689;51.644;5.618;2023-04-01T03:36:12;5.03;;;3.75;;
48875;SDS011;34689;51.644;5.618;2023-04-01T03:38:42;4.07;;;2.70;;
48875;SDS011;34689;51.644;5.618;2023-04-01T03:41:14;7.63;;;4.70;;
48875;SDS011;34689;51.644;5.618;2023-04-01T03:43:41;8.00;;;3.95;;
48875;SDS011;34689;51.644;5.618;2023-04-01T03:46:08;7.88;;;4.13;;
48875;SDS011;34689;51.644;5.618;2023-04-01T03:48:34;6.35;;;4.15;;
48875;SDS011;34689;51.644;5.618;2023-04-01T03:51:00;6.15;;;3.67;;
48875;SDS011;34689;51.644;5.618;2023-04-01T03:53:25;7.28;;;4.35;;
48875;SDS011;34689;51.644;5.618;2023-04-01T03:55:52;6.68;;;4.15;;
48875;SDS011;34689;51.644;5.618;2023-04-01T03:58:18;5.85;;;3.35;;
48875;SDS011;34689;51.644;5.618;2023-04-01T04:00:45;6.38;;;3.45;;
48875;SDS011;34689;51.644;5.618;2023-04-01T04:03:11;3.38;;;2.20;;
48875;SDS011;34689;51.644;5.618;2023-04-01T04:05:37;3.97;;;2.47;;
48875;SDS011;34689;51.644;5.618;2023-04-01T04:08:03;2.63;;;1.83;;
48875;SDS011;34689;51.644;5.618;2023-04-01T04:10:29;5.35;;;1.88;;
48875;SDS011;34689;51.644;5.618;2023-04-01T04:12:55;3.83;;;2.20;;
48875;SDS011;34689;51.644;5.618;2023-04-01T04:15:21;2.20;;;1.60;;
48875;SDS011;34689;51.644;5.618;2023-04-01T04:17:47;3.47;;;1.75;;
48875;SDS011;34689;51.644;5.618;2023-04-01T04:20:13;3.13;;;2.22;;
48875;SDS011;34689;51.644;5.618;2023-04-01T04:22:39;1.67;;;1.35;;
48875;SDS011;34689;51.644;5.618;2023-04-01T04:25:07;2.55;;;2.10;;
48875;SDS011;34689;51.644;5.618;2023-04-01T04:27:33;3.35;;;1.30;;
48875;SDS011;34689;51.644;5.618;2023-04-01T04:30:00;2.22;;;1.38;;
48875;SDS011;34689;51.644;5.618;2023-04-01T04:32:25;1.63;;;1.25;;
48875;SDS011;34689;51.644;5.618;2023-04-01T04:34:51;2.22;;;1.17;;
48875;SDS011;34689;51.644;5.618;2023-04-01T04:37:17;3.33;;;1.17;;
48875;SDS011;34689;51.644;5.618;2023-04-01T04:39:42;3.17;;;1.38;;
48875;SDS011;34689;51.644;5.618;2023-04-01T04:42:08;1.60;;;1.27;;
48875;SDS011;34689;51.644;5.618;2023-04-01T04:44:34;1.60;;;0.88;;
48875;SDS011;34689;51.644;5.618;2023-04-01T04:47:00;1.38;;;0.93;;
48875;SDS011;34689;51.644;5.618;2023-04-01T04:49:26;2.22;;;1.40;;
48875;SDS011;34689;51.644;5.618;2023-04-01T04:51:52;1.08;;;0.90;;
48875;SDS011;34689;51.644;5.618;2023-04-01T04:54:17;2.58;;;1.20;;
48875;SDS011;34689;51.644;5.618;2023-04-01T04:56:45;1.65;;;1.30;;
48875;SDS011;34689;51.644;5.618;2023-04-01T04:59:11;1.17;;;1.08;;
48875;SDS011;34689;51.644;5.618;2023-04-01T05:01:37;3.33;;;1.95;;
48875;SDS011;34689;51.644;5.618;2023-04-01T05:04:03;2.45;;;1.00;;
48875;SDS011;34689;51.644;5.618;2023-04-01T05:06:29;1.65;;;1.02;;
48875;SDS011;34689;51.644;5.618;2023-04-01T05:08:56;2.42;;;1.33;;
48875;SDS011;34689;51.644;5.618;2023-04-01T05:11:22;2.17;;;1.42;;
48875;SDS011;34689;51.644;5.618;2023-04-01T05:13:47;1.65;;;1.10;;
48875;SDS011;34689;51.644;5.618;2023-04-01T05:16:15;2.25;;;1.83;;
48875;SDS011;34689;51.644;5.618;2023-04-01T05:18:42;2.30;;;1.75;;
48875;SDS011;34689;51.644;5.618;2023-04-01T05:21:09;4.10;;;1.67;;
48875;SDS011;34689;51.644;5.618;2023-04-01T05:23:36;1.45;;;1.20;;
48875;SDS011;34689;51.644;5.618;2023-04-01T05:26:03;2.35;;;1.85;;
48875;SDS011;34689;51.644;5.618;2023-04-01T05:28:36;2.90;;;2.00;;
48875;SDS011;34689;51.644;5.618;2023-04-01T05:31:03;3.97;;;2.33;;
48875;SDS011;34689;51.644;5.618;2023-04-01T05:33:30;2.58;;;1.98;;
48875;SDS011;34689;51.644;5.618;2023-04-01T05:35:56;3.03;;;1.88;;
48875;SDS011;34689;51.644;5.618;2023-04-01T05:38:37;6.07;;;2.10;;
48875;SDS011;34689;51.644;5.618;2023-04-01T05:41:03;3.90;;;2.15;;
48875;SDS011;34689;51.644;5.618;2023-04-01T05:43:29;5.57;;;2.22;;
48875;SDS011;34689;51.644;5.618;2023-04-01T05:45:55;3.45;;;2.55;;
48875;SDS011;34689;51.644;5.618;2023-04-01T05:48:21;3.28;;;2.33;;
48875;SDS011;34689;51.644;5.618;2023-04-01T05:50:46;6.20;;;2.95;;
48875;SDS011;34689;51.644;5.618;2023-04-01T05:53:14;3.38;;;2.33;;
48875;SDS011;34689;51.644;5.618;2023-04-01T05:55:40;4.50;;;2.88;;
48875;SDS011;34689;51.644;5.618;2023-04-01T05:58:05;3.85;;;2.42;;
48875;SDS011;34689;51.644;5.618;2023-04-01T06:00:31;5.75;;;3.53;;
48875;SDS011;34689;51.644;5.618;2023-04-01T06:03:00;6.00;;;3.55;;
48875;SDS011;34689;51.644;5.618;2023-04-01T06:05:37;5.65;;;3.17;;
48875;SDS011;34689;51.644;5.618;2023-04-01T06:08:12;5.95;;;3.70;;
48875;SDS011;34689;51.644;5.618;2023-04-01T06:16:44;5.37;;;3.33;;
48875;SDS011;34689;51.644;5.618;2023-04-01T06:30:42;5.95;;;3.60;;
48875;SDS011;34689;51.644;5.618;2023-04-01T06:33:28;8.48;;;5.03;;
48875;SDS011;34689;51.644;5.618;2023-04-01T06:36:32;6.57;;;3.95;;
48875;SDS011;34689;51.644;5.618;2023-04-01T06:39:02;6.53;;;4.28;;
48875;SDS011;34689;51.644;5.618;2023-04-01T06:50:19;6.75;;;3.50;;
48875;SDS011;34689;51.644;5.618;2023-04-01T06:52:55;5.37;;;3.37;;
48875;SDS011;34689;51.644;5.618;2023-04-01T06:58:03;5.60;;;3.10;;
48875;SDS011;34689;51.644;5.618;2023-04-01T07:00:36;5.85;;;3.22;;
48875;SDS011;34689;51.644;5.618;2023-04-01T07:05:40;3.38;;;2.03;;
48875;SDS011;34689;51.644;5.618;2023-04-01T07:08:11;4.15;;;2.30;;
48875;SDS011;34689;51.644;5.618;2023-04-01T07:13:34;7.35;;;3.47;;
48875;SDS011;34689;51.644;5.618;2023-04-01T07:18:45;5.97;;;3.25;;
48875;SDS011;34689;51.644;5.618;2023-04-01T07:21:28;5.85;;;3.42;;
48875;SDS011;34689;51.644;5.618;2023-04-01T07:24:02;6.22;;;3.08;;
48875;SDS011;34689;51.644;5.618;2023-04-01T07:26:31;8.05;;;3.67;;
48875;SDS011;34689;51.644;5.618;2023-04-01T07:28:57;5.93;;;3.30;;
48875;SDS011;34689;51.644;5.618;2023-04-01T07:34:41;11.93;;;5.22;;
48875;SDS011;34689;51.644;5.618;2023-04-01T07:41:00;9.35;;;5.22;;
48875;SDS011;34689;51.644;5.618;2023-04-01T07:46:13;6.82;;;3.50;;
48875;SDS011;34689;51.644;5.618;2023-04-01T07:54:54;9.60;;;4.97;;
48875;SDS011;34689;51.644;5.618;2023-04-01T07:57:34;5.50;;;3.15;;
48875;SDS011;34689;51.644;5.618;2023-04-01T08:00:24;9.18;;;3.97;;
48875;SDS011;34689;51.644;5.618;2023-04-01T08:03:20;7.75;;;3.92;;
48875;SDS011;34689;51.644;5.618;2023-04-01T08:09:05;7.63;;;3.50;;
48875;SDS011;34689;51.644;5.618;2023-04-01T08:11:50;6.45;;;3.10;;
48875;SDS011;34689;51.644;5.618;2023-04-01T08:22:26;10.80;;;3.95;;
48875;SDS011;34689;51.644;5.618;2023-04-01T08:24:56;6.38;;;3.13;;
48875;SDS011;34689;51.644;5.618;2023-04-01T08:30:17;8.32;;;4.30;;
48875;SDS011;34689;51.644;5.618;2023-04-01T08:32:56;6.85;;;3.45;;
48875;SDS011;34689;51.644;5.618;2023-04-01T08:35:40;7.40;;;4.13;;
48875;SDS011;34689;51.644;5.618;2023-04-01T08:38:13;5.38;;;2.60;;
48875;SDS011;34689;51.644;5.618;2023-04-01T08:41:07;7.60;;;3.55;;
48875;SDS011;34689;51.644;5.618;2023-04-01T08:52:33;7.55;;;3.90;;
48875;SDS011;34689;51.644;5.618;2023-04-01T09:00:31;8.27;;;4.18;;
48875;SDS011;34689;51.644;5.618;2023-04-01T09:36:46;6.70;;;3.30;;
48875;SDS011;34689;51.644;5.618;2023-04-01T09:42:29;8.20;;;3.80;;
48875;SDS011;34689;51.644;5.618;2023-04-01T09:45:04;6.93;;;4.05;;
48875;SDS011;34689;51.644;5.618;2023-04-01T09:50:38;6.25;;;3.35;;
48875;SDS011;34689;51.644;5.618;2023-04-01T09:53:14;8.02;;;3.85;;
48875;SDS011;34689;51.644;5.618;2023-04-01T09:56:07;6.65;;;3.95;;
48875;SDS011;34689;51.644;5.618;2023-04-01T10:01:41;8.13;;;4.15;;
48875;SDS011;34689;51.644;5.618;2023-04-01T10:13:34;5.88;;;3.58;;
48875;SDS011;34689;51.644;5.618;2023-04-01T10:19:03;7.25;;;4.15;;
48875;SDS011;34689;51.644;5.618;2023-04-01T10:27:29;6.70;;;4.32;;
48875;SDS011;34689;51.644;5.618;2023-04-01T10:36:05;3.97;;;2.60;;
48875;SDS011;34689;51.644;5.618;2023-04-01T10:57:52;5.22;;;2.70;;
48875;SDS011;34689;51.644;5.618;2023-04-01T11:01:27;3.25;;;2.33;;
48875;SDS011;34689;51.644;5.618;2023-04-01T11:18:13;4.57;;;2.30;;
48875;SDS011;34689;51.644;5.618;2023-04-01T11:43:09;4.22;;;2.33;;
48875;SDS011;34689;51.644;5.618;2023-04-01T11:45:50;4.53;;;2.40;;
48875;SDS011;34689;51.644;5.618;2023-04-01T12:05:10;5.53;;;2.55;;
48875;SDS011;34689;51.644;5.618;2023-04-01T12:14:02;3.45;;;2.55;;
48875;SDS011;34689;51.644;5.618;2023-04-01T12:16:37;2.72;;;1.63;;
48875;SDS011;34689;51.644;5.618;2023-04-01T12:19:15;4.50;;;2.63;;
48875;SDS011;34689;51.644;5.618;2023-04-01T12:24:47;3.35;;;2.08;;
48875;SDS011;34689;51.644;5.618;2023-04-01T12:40:20;2.60;;;1.67;;
48875;SDS011;34689;51.644;5.618;2023-04-01T12:45:54;4.20;;;1.98;;
48875;SDS011;34689;51.644;5.618;2023-04-01T13:32:42;2.15;;;1.42;;
48875;SDS011;34689;51.644;5.618;2023-04-01T13:38:06;2.20;;;1.40;;
48875;SDS011;34689;51.644;5.618;2023-04-01T13:41:01;2.47;;;1.13;;
48875;SDS011;34689;51.644;5.618;2023-04-01T14:05:53;2.58;;;1.58;;
48875;SDS011;34689;51.644;5.618;2023-04-01T14:28:23;4.07;;;2.08;;
48875;SDS011;34689;51.644;5.618;2023-04-01T14:50:55;3.42;;;1.73;;
48875;SDS011;34689;51.644;5.618;2023-04-01T14:53:29;2.30;;;1.60;;
48875;SDS011;34689;51.644;5.618;2023-04-01T14:56:01;5.35;;;2.28;;
48875;SDS011;34689;51.644;5.618;2023-04-01T14:58:47;4.05;;;2.15;;
48875;SDS011;34689;51.644;5.618;2023-04-01T15:14:16;5.35;;;2.75;;
48875;SDS011;34689;51.644;5.618;2023-04-01T15:16:52;6.10;;;2.97;;
48875;SDS011;34689;51.644;5.618;2023-04-01T15:28:32;5.30;;;2.78;;
48875;SDS011;34689;51.644;5.618;2023-04-01T15:48:13;3.65;;;1.65;;
48875;SDS011;34689;51.644;5.618;2023-04-01T15:51:10;2.80;;;1.60;;
48875;SDS011;34689;51.644;5.618;2023-04-01T15:59:27;2.80;;;1.92;;
48875;SDS011;34689;51.644;5.618;2023-04-01T16:04:55;4.65;;;3.08;;
48875;SDS011;34689;51.644;5.618;2023-04-01T16:19:09;4.47;;;2.08;;
48875;SDS011;34689;51.644;5.618;2023-04-01T16:22:05;4.10;;;2.00;;
48875;SDS011;34689;51.644;5.618;2023-04-01T16:30:35;3.05;;;1.65;;
48875;SDS011;34689;51.644;5.618;2023-04-01T16:33:20;2.08;;;1.52;;
48875;SDS011;34689;51.644;5.618;2023-04-01T16:35:49;2.17;;;1.63;;
48875;SDS011;34689;51.644;5.618;2023-04-01T16:41:20;5.00;;;1.50;;
48875;SDS011;34689;51.644;5.618;2023-04-01T16:44:43;1.52;;;1.27;;
48875;SDS011;34689;51.644;5.618;2023-04-01T16:46:54;1.48;;;1.10;;
48875;SDS011;34689;51.644;5.618;2023-04-01T16:49:36;2.00;;;1.40;;
48875;SDS011;34689;51.644;5.618;2023-04-01T16:54:56;1.48;;;1.23;;
48875;SDS011;34689;51.644;5.618;2023-04-01T17:02:44;2.38;;;1.10;;
48875;SDS011;34689;51.644;5.618;2023-04-01T17:05:49;2.25;;;1.58;;
48875;SDS011;34689;51.644;5.618;2023-04-01T17:08:39;2.22;;;1.33;;
48875;SDS011;34689;51.644;5.618;2023-04-01T17:11:23;1.65;;;1.17;;
48875;SDS011;34689;51.644;5.618;2023-04-01T17:22:26;2.20;;;1.35;;
48875;SDS011;34689;51.644;5.618;2023-04-01T17:25:31;1.17;;;0.73;;
48875;SDS011;34689;51.644;5.618;2023-04-01T17:28:11;1.75;;;1.10;;
48875;SDS011;34689;51.644;5.618;2023-04-01T17:31:14;1.33;;;1.02;;
48875;SDS011;34689;51.644;5.618;2023-04-01T17:36:36;2.08;;;1.42;;
48875;SDS011;34689;51.644;5.618;2023-04-01T17:41:57;1.75;;;1.05;;
48875;SDS011;34689;51.644;5.618;2023-04-01T17:50:07;1.27;;;0.88;;
48875;SDS011;34689;51.644;5.618;2023-04-01T17:52:46;2.35;;;1.67;;
48875;SDS011;34689;51.644;5.618;2023-04-01T17:55:27;2.53;;;1.23;;
48875;SDS011;34689;51.644;5.618;2023-04-01T17:58:20;2.15;;;1.27;;
48875;SDS011;34689;51.644;5.618;2023-04-01T18:06:19;2.05;;;1.13;;
48875;SDS011;34689;51.644;5.618;2023-04-01T18:14:04;1.95;;;1.15;;
48875;SDS011;34689;51.644;5.618;2023-04-01T18:27:32;2.78;;;2.00;;
48875;SDS011;34689;51.644;5.618;2023-04-01T18:32:43;2.42;;;1.48;;
48875;SDS011;34689;51.644;5.618;2023-04-01T18:43:57;2.58;;;1.80;;
48875;SDS011;34689;51.644;5.618;2023-04-01T18:51:59;3.17;;;2.00;;
48875;SDS011;34689;51.644;5.618;2023-04-01T19:00:20;3.08;;;2.00;;
48875;SDS011;34689;51.644;5.618;2023-04-01T19:03:06;2.70;;;1.85;;
48875;SDS011;34689;51.644;5.618;2023-04-01T19:05:56;2.78;;;2.00;;
48875;SDS011;34689;51.644;5.618;2023-04-01T19:08:34;3.05;;;2.10;;
48875;SDS011;34689;51.644;5.618;2023-04-01T19:11:23;2.88;;;2.00;;
48875;SDS011;34689;51.644;5.618;2023-04-01T19:16:48;4.65;;;2.78;;
48875;SDS011;34689;51.644;5.618;2023-04-01T19:19:53;3.50;;;2.47;;
48875;SDS011;34689;51.644;5.618;2023-04-01T19:22:44;4.15;;;2.97;;
48875;SDS011;34689;51.644;5.618;2023-04-01T19:31:08;4.07;;;3.13;;
48875;SDS011;34689;51.644;5.618;2023-04-01T19:37:09;3.70;;;2.30;;
48875;SDS011;34689;51.644;5.618;2023-04-01T19:39:47;3.63;;;2.65;;
48875;SDS011;34689;51.644;5.618;2023-04-01T19:42:36;3.10;;;2.63;;
48875;SDS011;34689;51.644;5.618;2023-04-01T19:50:58;2.97;;;2.03;;
48875;SDS011;34689;51.644;5.618;2023-04-01T19:53:43;4.32;;;2.78;;
48875;SDS011;34689;51.644;5.618;2023-04-01T19:56:31;4.05;;;2.90;;
48875;SDS011;34689;51.644;5.618;2023-04-01T20:01:48;5.68;;;3.10;;
48875;SDS011;34689;51.644;5.618;2023-04-01T20:04:44;5.00;;;3.13;;
48875;SDS011;34689;51.644;5.618;2023-04-01T20:15:38;4.10;;;3.20;;
48875;SDS011;34689;51.644;5.618;2023-04-01T20:18:18;3.65;;;2.83;;
48875;SDS011;34689;51.644;5.618;2023-04-01T20:20:53;4.25;;;3.20;;
48875;SDS011;34689;51.644;5.618;2023-04-01T20:23:30;4.03;;;2.72;;
48875;SDS011;34689;51.644;5.618;2023-04-01T20:26:11;3.60;;;2.08;;
48875;SDS011;34689;51.644;5.618;2023-04-01T20:31:23;3.75;;;2.35;;
48875;SDS011;34689;51.644;5.618;2023-04-01T20:37:02;3.83;;;2.58;;
48875;SDS011;34689;51.644;5.618;2023-04-01T20:40:12;3.10;;;2.35;;
48875;SDS011;34689;51.644;5.618;2023-04-01T20:48:25;3.20;;;2.53;;
48875;SDS011;34689;51.644;5.618;2023-04-01T20:51:22;4.68;;;3.28;;
48875;SDS011;34689;51.644;5.618;2023-04-01T20:54:04;2.53;;;2.17;;
48875;SDS011;34689;51.644;5.618;2023-04-01T21:07:41;2.83;;;2.40;;
48875;SDS011;34689;51.644;5.618;2023-04-01T21:13:14;3.25;;;2.45;;
48875;SDS011;34689;51.644;5.618;2023-04-01T21:26:56;4.93;;;3.45;;
48875;SDS011;34689;51.644;5.618;2023-04-01T21:30:01;4.18;;;3.50;;
48875;SDS011;34689;51.644;5.618;2023-04-01T21:35:22;4.32;;;3.28;;
48875;SDS011;34689;51.644;5.618;2023-04-01T21:57:38;4.57;;;3.22;;
48875;SDS011;34689;51.644;5.618;2023-04-01T22:00:24;5.83;;;3.87;;
48875;SDS011;34689;51.644;5.618;2023-04-01T22:05:51;7.43;;;5.57;;
48875;SDS011;34689;51.644;5.618;2023-04-01T22:10:54;5.90;;;4.63;;
48875;SDS011;34689;51.644;5.618;2023-04-01T22:19:00;7.85;;;5.68;;
48875;SDS011;34689;51.644;5.618;2023-04-01T22:21:55;5.03;;;4.07;;
48875;SDS011;34689;51.644;5.618;2023-04-01T22:30:26;7.32;;;5.25;;
48875;SDS011;34689;51.644;5.618;2023-04-01T22:33:02;6.15;;;4.60;;
48875;SDS011;34689;51.644;5.618;2023-04-01T22:44:04;5.75;;;4.53;;
48875;SDS011;34689;51.644;5.618;2023-04-01T22:49:32;4.95;;;3.40;;
48875;SDS011;34689;51.644;5.618;2023-04-01T22:52:27;7.20;;;3.85;;
48875;SDS011;34689;51.644;5.618;2023-04-01T22:55:04;4.28;;;3.47;;
48875;SDS011;34689;51.644;5.618;2023-04-01T22:57:40;4.93;;;3.25;;
48875;SDS011;34689;51.644;5.618;2023-04-01T23:00:13;5.47;;;3.58;;
48875;SDS011;34689;51.644;5.618;2023-04-01T23:05:49;5.45;;;4.13;;
48875;SDS011;34689;51.644;5.618;2023-04-01T23:11:10;5.32;;;3.35;;
48875;SDS011;34689;51.644;5.618;2023-04-01T23:13:46;5.80;;;3.70;;
48875;SDS011;34689;51.644;5.618;2023-04-01T23:16:43;3.85;;;3.20;;
48875;SDS011;34689;51.644;5.618;2023-04-01T23:19:23;5.72;;;3.60;;
48875;SDS011;34689;51.644;5.618;2023-04-01T23:21:59;4.13;;;3.33;;
48875;SDS011;34689;51.644;5.618;2023-04-01T23:27:14;4.88;;;3.58;;
48875;SDS011;34689;51.644;5.618;2023-04-01T23:29:47;5.50;;;3.28;;
48875;SDS011;34689;51.644;5.618;2023-04-01T23:32:16;3.30;;;2.67;;
48875;SDS011;34689;51.644;5.618;2023-04-01T23:34:54;4.20;;;3.03;;
48875;SDS011;34689;51.644;5.618;2023-04-01T23:37:22;4.35;;;2.80;;
48875;SDS011;34689;51.644;5.618;2023-04-01T23:39:58;3.88;;;2.97;;
48875;SDS011;34689;51.644;5.618;2023-04-01T23:45:17;4.55;;;2.83;;
48875;SDS011;34689;51.644;5.618;2023-04-01T23:47:45;6.47;;;3.20;;
48875;SDS011;34689;51.644;5.618;2023-04-01T23:50:20;3.03;;;2.22;;
48875;SDS011;34689;51.644;5.618;2023-04-01T23:52:54;3.05;;;2.08;;
48875;SDS011;34689;51.644;5.618;2023-04-01T23:55:25;3.78;;;2.75;;
48875;SDS011;34689;51.644;5.618;2023-04-01T23:58:41;3.42;;;2.55;;
